Time;durP1;ratioP1;P1;durP2;ratioP2;P2;SDS_P1;SDS_P2;PMS_P1;PMS_P2;Temp;Humidity;BMP_temperature;BMP_pressure;BME280_temperature;BME280_humidity;BME280_pressure;Samples;Min_cycle;Max_cycle;Signal;HPM_P1;HPM_P2
2022/08/03 00:01:16;;;;;;;;;;;20.90;75.30;;;;;;5034850;28;19913;-81
2022/08/03 00:03:41;;;;;;;;;;;20.90;75.30;;;;;;5026895;28;19914;-80
2022/08/03 00:06:07;;;;;;;;;;;20.90;75.00;;;;;;5027711;28;20454;-80
2022/08/03 00:08:32;;;;;;;;;;;20.80;75.40;;;;;;5025240;28;19921;-80
2022/08/03 00:10:58;;;;;;;;;;;20.90;75.80;;;;;;5028800;28;19913;-81
2022/08/03 00:13:23;;;;;;;;;;;20.80;75.80;;;;;;5022103;28;19914;-80
2022/08/03 00:15:49;;;;;;;;;;;20.80;75.80;;;;;;5023721;28;20380;-81
2022/08/03 00:18:14;;;;;;;;;;;20.80;75.70;;;;;;5026460;28;19917;-81
2022/08/03 00:20:40;;;;;;;;;;;20.80;75.40;;;;;;5034133;28;19913;-80
2022/08/03 00:23:05;;;;;;;;;;;20.80;75.70;;;;;;5036259;28;20307;-80
2022/08/03 00:25:32;;;;;;;;;;;20.70;75.50;;;;;;5022679;28;20410;-80
2022/08/03 00:27:58;;;;;;;;;;;20.70;75.80;;;;;;5026836;28;19913;-80
2022/08/03 00:30:23;;;;;;;;;;;20.70;76.00;;;;;;5025368;28;19913;-81
2022/08/03 00:32:49;;;;;;;;;;;20.70;75.80;;;;;;5027131;28;20008;-79
2022/08/03 00:35:14;;;;;;;;;;;20.70;75.90;;;;;;5035005;28;19952;-80
2022/08/03 00:37:40;;;;;;;;;;;20.70;75.90;;;;;;5021795;28;19913;-81
2022/08/03 00:40:05;;;;;;;;;;;20.70;75.90;;;;;;5027864;28;19919;-80
2022/08/03 00:42:31;;;;;;;;;;;20.60;76.20;;;;;;5031637;28;20016;-80
2022/08/03 00:44:56;;;;;;;;;;;20.60;75.90;;;;;;5033193;28;19922;-80
2022/08/03 00:47:22;;;;;;;;;;;20.60;75.60;;;;;;5028873;28;19924;-80
2022/08/03 00:49:47;;;;;;;;;;;20.60;75.60;;;;;;5033262;28;20350;-80
2022/08/03 00:52:14;;;;;;;;;;;20.70;75.90;;;;;;5025803;28;20047;-80
2022/08/03 00:54:39;;;;;;;;;;;20.60;75.80;;;;;;5023655;28;19984;-80
2022/08/03 00:57:05;;;;;;;;;;;20.60;75.50;;;;;;5019043;28;19917;-81
2022/08/03 00:59:31;;;;;;;;;;;20.60;75.20;;;;;;5020894;28;19918;-80
2022/08/03 01:01:56;;;;;;;;;;;20.60;74.90;;;;;;5031483;28;19913;-80
2022/08/03 01:04:22;;;;;;;;;;;20.60;74.90;;;;;;5028466;28;19917;-80
2022/08/03 01:06:57;;;;;;;;;;;20.60;75.40;;;;;;5025122;28;19960;-79
2022/08/03 01:09:37;;;;;;;;;;;20.60;75.40;;;;;;5027730;28;19968;-80
2022/08/03 01:12:07;;;;;;;;;;;20.60;75.40;;;;;;5018659;28;19920;-80
2022/08/03 01:14:49;;;;;;;;;;;20.60;75.50;;;;;;5034586;28;19913;-81
2022/08/03 01:17:33;;;;;;;;;;;20.60;75.50;;;;;;5027016;28;19964;-80
2022/08/03 01:20:05;;;;;;;;;;;20.70;75.50;;;;;;5046845;28;19917;-80
2022/08/03 01:22:50;;;;;;;;;;;20.60;75.90;;;;;;5043898;28;19905;-79
2022/08/03 01:25:18;;;;;;;;;;;20.60;75.90;;;;;;5041035;28;19917;-81
2022/08/03 01:27:55;;;;;;;;;;;20.60;75.30;;;;;;5042619;28;20057;-80
2022/08/03 01:30:22;;;;;;;;;;;20.50;76.00;;;;;;5049856;28;19943;-80
2022/08/03 01:32:54;;;;;;;;;;;20.50;76.00;;;;;;5034867;28;19914;-80
2022/08/03 01:35:40;;;;;;;;;;;20.50;76.20;;;;;;5037547;28;19944;-81
2022/08/03 01:38:14;;;;;;;;;;;20.50;76.60;;;;;;5026906;28;19913;-80
2022/08/03 01:40:41;;;;;;;;;;;20.60;76.60;;;;;;5040457;28;20235;-81
2022/08/03 01:43:08;;;;;;;;;;;20.60;76.10;;;;;;5032459;28;19921;-80
2022/08/03 01:45:35;;;;;;;;;;;20.50;75.90;;;;;;5042901;28;19967;-81
2022/08/03 01:48:01;;;;;;;;;;;20.50;76.10;;;;;;5028814;28;20106;-79
2022/08/03 01:50:28;;;;;;;;;;;20.50;76.20;;;;;;5039758;28;19913;-80
2022/08/03 01:52:54;;;;;;;;;;;20.50;76.60;;;;;;5029234;28;20091;-80
2022/08/03 01:55:21;;;;;;;;;;;20.50;76.60;;;;;;5034969;28;19913;-81
2022/08/03 01:57:48;;;;;;;;;;;20.40;76.40;;;;;;5033962;28;19914;-80
2022/08/03 02:00:14;;;;;;;;;;;20.40;75.70;;;;;;5031168;28;19937;-81
2022/08/03 02:02:41;;;;;;;;;;;20.50;76.00;;;;;;5025565;28;20444;-80
2022/08/03 02:05:08;;;;;;;;;;;20.50;75.70;;;;;;5037873;28;19921;-78
2022/08/03 02:07:34;;;;;;;;;;;20.50;75.50;;;;;;5034529;28;20991;-80
2022/08/03 02:10:01;;;;;;;;;;;20.50;74.70;;;;;;5033233;28;19921;-80
2022/08/03 02:12:28;;;;;;;;;;;20.50;74.70;;;;;;5036970;28;19913;-80
2022/08/03 02:14:55;;;;;;;;;;;20.60;74.60;;;;;;5024780;28;20004;-81
2022/08/03 02:17:21;;;;;;;;;;;20.60;74.30;;;;;;5030729;28;20374;-80
2022/08/03 02:19:47;;;;;;;;;;;20.60;74.70;;;;;;5028900;28;20413;-79
2022/08/03 02:22:14;;;;;;;;;;;20.50;74.30;;;;;;5035098;28;19996;-80
2022/08/03 02:24:39;;;;;;;;;;;20.60;74.40;;;;;;5048504;28;20444;-80
2022/08/03 02:27:09;;;;;;;;;;;20.50;74.30;;;;;;5025136;28;19993;-80
2022/08/03 02:29:35;;;;;;;;;;;20.50;74.20;;;;;;5035977;28;20385;-80
2022/08/03 02:32:03;;;;;;;;;;;20.50;74.30;;;;;;5032057;28;20361;-80
2022/08/03 02:34:30;;;;;;;;;;;20.60;74.00;;;;;;5030094;28;19914;-81
2022/08/03 02:36:58;;;;;;;;;;;20.60;74.00;;;;;;5032376;28;20285;-81
2022/08/03 02:39:26;;;;;;;;;;;20.60;73.90;;;;;;5032960;28;19987;-81
2022/08/03 02:41:54;;;;;;;;;;;20.60;73.30;;;;;;5027405;28;20027;-81
2022/08/03 02:44:24;;;;;;;;;;;20.60;73.20;;;;;;5031588;28;19917;-80
2022/08/03 02:46:53;;;;;;;;;;;20.70;73.20;;;;;;5029841;28;19949;-81
2022/08/03 02:49:19;;;;;;;;;;;20.60;73.20;;;;;;5028328;28;19933;-81
2022/08/03 02:51:45;;;;;;;;;;;20.60;73.60;;;;;;5024624;28;20032;-80
2022/08/03 02:54:14;;;;;;;;;;;20.50;73.70;;;;;;5028098;28;20066;-80
2022/08/03 02:56:40;;;;;;;;;;;20.60;73.80;;;;;;5052485;28;20360;-80
2022/08/03 02:59:06;;;;;;;;;;;20.60;73.80;;;;;;5038664;28;19917;-79
2022/08/03 03:01:31;;;;;;;;;;;20.50;73.50;;;;;;5038678;28;19917;-80
2022/08/03 03:03:57;;;;;;;;;;;20.60;73.10;;;;;;5029737;28;20361;-80
2022/08/03 03:06:24;;;;;;;;;;;20.60;73.50;;;;;;5035934;28;19936;-79
2022/08/03 03:08:50;;;;;;;;;;;20.50;74.10;;;;;;5027116;28;19923;-80
2022/08/03 03:11:17;;;;;;;;;;;20.50;73.80;;;;;;5019216;28;19944;-80
2022/08/03 03:13:43;;;;;;;;;;;20.50;74.20;;;;;;5025680;28;19918;-80
2022/08/03 03:16:10;;;;;;;;;;;20.50;74.00;;;;;;5023287;28;19913;-81
2022/08/03 03:18:36;;;;;;;;;;;20.40;73.80;;;;;;5026262;28;19921;-80
2022/08/03 03:21:03;;;;;;;;;;;20.40;74.20;;;;;;5035117;28;19963;-80
2022/08/03 03:23:29;;;;;;;;;;;20.40;74.20;;;;;;5034107;28;19909;-80
2022/08/03 03:25:55;;;;;;;;;;;20.40;74.70;;;;;;5031799;28;20462;-80
2022/08/03 03:28:22;;;;;;;;;;;20.50;73.80;;;;;;5032878;28;19944;-81
2022/08/03 03:30:47;;;;;;;;;;;20.50;73.70;;;;;;5029016;28;19917;-81
2022/08/03 03:33:13;;;;;;;;;;;20.50;73.80;;;;;;5018442;28;19913;-81
2022/08/03 03:35:40;;;;;;;;;;;20.50;74.10;;;;;;5026052;28;19924;-79
2022/08/03 03:38:05;;;;;;;;;;;20.50;74.40;;;;;;5027842;28;19991;-81
2022/08/03 03:40:31;;;;;;;;;;;20.50;74.00;;;;;;5030678;28;19956;-81
2022/08/03 03:42:57;;;;;;;;;;;20.50;73.60;;;;;;5031961;28;19920;-81
2022/08/03 03:45:23;;;;;;;;;;;20.50;73.40;;;;;;5039447;28;19986;-81
2022/08/03 03:47:48;;;;;;;;;;;20.50;74.10;;;;;;5035854;28;19913;-81
2022/08/03 03:50:14;;;;;;;;;;;20.50;74.20;;;;;;5038612;28;19940;-81
2022/08/03 03:52:40;;;;;;;;;;;20.50;74.30;;;;;;5038133;28;19920;-79
2022/08/03 03:55:06;;;;;;;;;;;20.50;74.00;;;;;;5039488;28;19935;-81
2022/08/03 03:57:32;;;;;;;;;;;20.40;74.10;;;;;;5034612;28;19909;-79
2022/08/03 03:59:58;;;;;;;;;;;20.50;74.00;;;;;;5028368;28;20325;-80
2022/08/03 04:02:23;;;;;;;;;;;20.50;73.80;;;;;;5036003;28;19944;-81
2022/08/03 04:13:12;;;;;;;;;;;20.50;73.40;;;;;;5026605;28;19956;-80
2022/08/03 04:15:38;;;;;;;;;;;20.50;73.20;;;;;;5032720;28;20033;-80
2022/08/03 04:18:05;;;;;;;;;;;20.60;72.60;;;;;;5023293;28;19944;-81
2022/08/03 04:20:32;;;;;;;;;;;20.60;73.30;;;;;;5033719;28;20273;-81
2022/08/03 04:22:59;;;;;;;;;;;20.50;73.10;;;;;;5032948;28;19971;-81
2022/08/03 04:25:26;;;;;;;;;;;20.50;73.70;;;;;;5024986;28;20023;-81
2022/08/03 04:27:54;;;;;;;;;;;20.40;74.00;;;;;;5029424;28;19913;-81
2022/08/03 04:30:21;;;;;;;;;;;20.50;73.50;;;;;;5030174;28;19956;-80
2022/08/03 04:32:50;;;;;;;;;;;20.50;73.40;;;;;;5047133;28;19924;-80
2022/08/03 04:35:16;;;;;;;;;;;20.50;73.70;;;;;;5046851;28;19917;-80
2022/08/03 04:37:46;;;;;;;;;;;20.50;73.90;;;;;;5045151;28;19914;-81
2022/08/03 04:40:13;;;;;;;;;;;20.50;73.50;;;;;;5043061;28;19917;-80
2022/08/03 04:42:39;;;;;;;;;;;20.60;73.10;;;;;;5037166;28;19971;-79
2022/08/03 04:45:05;;;;;;;;;;;20.60;73.60;;;;;;5042828;28;19917;-80
2022/08/03 04:47:32;;;;;;;;;;;20.60;73.10;;;;;;5041595;28;21189;-81
2022/08/03 04:49:59;;;;;;;;;;;20.60;72.70;;;;;;5034920;28;19932;-81
2022/08/03 04:52:24;;;;;;;;;;;20.70;72.50;;;;;;5030565;28;19913;-82
2022/08/03 04:54:50;;;;;;;;;;;20.70;72.60;;;;;;5029873;28;20372;-78
2022/08/03 04:57:15;;;;;;;;;;;20.80;72.60;;;;;;5017397;28;19914;-78
2022/08/03 04:59:41;;;;;;;;;;;20.80;72.40;;;;;;5029651;28;19932;-80
2022/08/03 05:02:07;;;;;;;;;;;20.70;72.60;;;;;;5026706;28;19955;-79
2022/08/03 05:04:32;;;;;;;;;;;20.90;72.10;;;;;;5029340;28;19925;-81
2022/08/03 05:06:57;;;;;;;;;;;21.00;72.10;;;;;;5028840;28;19924;-79
2022/08/03 05:09:23;;;;;;;;;;;21.00;71.80;;;;;;5026649;28;19960;-79
2022/08/03 05:11:48;;;;;;;;;;;21.00;71.80;;;;;;5026134;28;19913;-81
2022/08/03 05:14:14;;;;;;;;;;;21.00;72.00;;;;;;5028548;28;20293;-78
2022/08/03 05:16:39;;;;;;;;;;;21.00;71.50;;;;;;5030292;28;19921;-82
2022/08/03 05:19:05;;;;;;;;;;;21.10;71.30;;;;;;5023631;28;20404;-82
2022/08/03 05:21:30;;;;;;;;;;;21.10;71.50;;;;;;5029526;28;19921;-81
2022/08/03 05:23:56;;;;;;;;;;;21.20;71.40;;;;;;5022692;28;19961;-80
2022/08/03 05:26:21;;;;;;;;;;;21.20;71.20;;;;;;5026647;28;19913;-81
2022/08/03 05:28:47;;;;;;;;;;;21.30;71.10;;;;;;5029691;28;19917;-82
2022/08/03 05:31:12;;;;;;;;;;;21.30;71.50;;;;;;5024512;28;19951;-81
2022/08/03 05:33:38;;;;;;;;;;;21.30;71.50;;;;;;5031677;28;19923;-77
2022/08/03 05:36:04;;;;;;;;;;;21.30;71.30;;;;;;5032515;28;19917;-81
2022/08/03 05:38:30;;;;;;;;;;;21.40;71.30;;;;;;5031424;28;19920;-81
2022/08/03 05:40:56;;;;;;;;;;;21.40;71.80;;;;;;5022347;28;19920;-80
2022/08/03 05:43:22;;;;;;;;;;;21.50;71.00;;;;;;5023616;28;19913;-80
2022/08/03 05:45:47;;;;;;;;;;;21.50;70.70;;;;;;5016740;28;19948;-81
2022/08/03 05:48:13;;;;;;;;;;;21.60;71.00;;;;;;5029534;28;20313;-81
2022/08/03 05:50:38;;;;;;;;;;;21.60;70.90;;;;;;5017618;28;20034;-81
2022/08/03 05:53:04;;;;;;;;;;;21.60;70.90;;;;;;5033742;28;20582;-81
2022/08/03 05:55:29;;;;;;;;;;;21.60;71.00;;;;;;5028122;28;19914;-81
2022/08/03 05:57:55;;;;;;;;;;;21.70;70.90;;;;;;5029617;28;19920;-81
2022/08/03 06:00:20;;;;;;;;;;;21.90;70.40;;;;;;5025471;28;19929;-81
2022/08/03 06:02:46;;;;;;;;;;;21.90;70.20;;;;;;5028149;28;19913;-80
2022/08/03 06:05:11;;;;;;;;;;;22.00;70.00;;;;;;5023404;28;19999;-81
2022/08/03 06:07:37;;;;;;;;;;;22.00;69.70;;;;;;5029430;28;20358;-82
2022/08/03 06:10:03;;;;;;;;;;;22.00;69.40;;;;;;5026291;28;19968;-81
2022/08/03 06:12:29;;;;;;;;;;;22.10;69.30;;;;;;5020446;28;19983;-82
2022/08/03 06:14:54;;;;;;;;;;;22.20;69.20;;;;;;5026561;28;20393;-80
2022/08/03 06:17:20;;;;;;;;;;;22.30;68.70;;;;;;5031072;28;19924;-82
2022/08/03 06:19:45;;;;;;;;;;;22.50;68.40;;;;;;5023997;28;19913;-82
2022/08/03 06:22:11;;;;;;;;;;;22.60;67.70;;;;;;5022843;28;20053;-81
2022/08/03 06:24:36;;;;;;;;;;;22.80;67.20;;;;;;5020543;28;20293;-81
2022/08/03 06:27:02;;;;;;;;;;;23.20;65.40;;;;;;5022149;28;19917;-82
2022/08/03 06:29:27;;;;;;;;;;;23.50;64.10;;;;;;5020240;28;19913;-80
2022/08/03 06:31:53;;;;;;;;;;;23.80;63.60;;;;;;5028415;28;19924;-81
2022/08/03 06:34:18;;;;;;;;;;;23.80;63.40;;;;;;5024904;28;19920;-82
2022/08/03 06:36:47;;;;;;;;;;;23.80;62.90;;;;;;5021965;28;20310;-82
2022/08/03 06:39:12;;;;;;;;;;;24.00;62.90;;;;;;5019796;28;19940;-82
2022/08/03 06:41:38;;;;;;;;;;;24.20;61.70;;;;;;5031981;28;20388;-81
2022/08/03 06:44:04;;;;;;;;;;;24.20;61.60;;;;;;5033923;28;19917;-81
2022/08/03 06:46:29;;;;;;;;;;;24.10;61.80;;;;;;5029118;28;19913;-81
2022/08/03 06:48:55;;;;;;;;;;;23.90;62.50;;;;;;5022049;28;19933;-81
2022/08/03 06:51:22;;;;;;;;;;;23.80;62.60;;;;;;5030200;28;20163;-81
2022/08/03 06:53:47;;;;;;;;;;;23.80;62.40;;;;;;5031891;28;19921;-81
2022/08/03 06:56:13;;;;;;;;;;;23.80;62.50;;;;;;5025486;28;20482;-81
2022/08/03 06:58:38;;;;;;;;;;;23.80;62.80;;;;;;5031570;28;20297;-80
2022/08/03 07:01:04;;;;;;;;;;;23.80;62.80;;;;;;5030536;28;19959;-81
2022/08/03 07:03:29;;;;;;;;;;;24.00;62.70;;;;;;5025783;28;19936;-82
2022/08/03 07:05:55;;;;;;;;;;;24.10;62.10;;;;;;5034666;28;19944;-81
2022/08/03 07:08:20;;;;;;;;;;;24.20;61.50;;;;;;5033865;28;19924;-81
2022/08/03 07:10:46;;;;;;;;;;;24.20;62.50;;;;;;5032749;28;19958;-80
2022/08/03 07:13:11;;;;;;;;;;;24.20;62.30;;;;;;5023749;28;19960;-81
2022/08/03 07:15:39;;;;;;;;;;;24.30;61.70;;;;;;5030019;28;21345;-81
2022/08/03 07:18:05;;;;;;;;;;;24.30;61.70;;;;;;5032144;28;19932;-81
2022/08/03 07:20:31;;;;;;;;;;;24.60;62.10;;;;;;5018160;28;20148;-81
2022/08/03 07:22:56;;;;;;;;;;;24.80;61.80;;;;;;5024908;28;19959;-82
2022/08/03 07:25:22;;;;;;;;;;;24.80;61.90;;;;;;5030061;28;19920;-81
2022/08/03 07:27:47;;;;;;;;;;;24.70;61.80;;;;;;5020872;28;20009;-80
2022/08/03 07:30:14;;;;;;;;;;;24.70;61.00;;;;;;5019474;28;19924;-80
2022/08/03 07:32:40;;;;;;;;;;;24.80;60.80;;;;;;5029218;28;19961;-81
2022/08/03 07:35:06;;;;;;;;;;;24.90;61.00;;;;;;5028756;28;19913;-82
2022/08/03 07:37:31;;;;;;;;;;;25.00;60.10;;;;;;5020224;28;19921;-80
2022/08/03 07:39:58;;;;;;;;;;;25.10;60.20;;;;;;5032481;28;19913;-82
2022/08/03 07:42:23;;;;;;;;;;;25.10;60.50;;;;;;5043012;28;19921;-81
2022/08/03 07:44:49;;;;;;;;;;;25.30;59.60;;;;;;5048238;28;19913;-79
2022/08/03 07:47:24;;;;;;;;;;;25.20;59.70;;;;;;5040784;28;19909;-81
2022/08/03 07:49:50;;;;;;;;;;;25.10;59.80;;;;;;5028136;28;19928;-80
2022/08/03 07:55:00;;;;;;;;;;;25.40;59.40;;;;;;5030514;28;19978;-80
2022/08/03 07:57:25;;;;;;;;;;;25.80;59.00;;;;;;5043544;23;19932;-81
2022/08/03 07:59:51;;;;;;;;;;;25.80;58.30;;;;;;5018007;28;20395;-81
2022/08/03 08:02:16;;;;;;;;;;;25.70;58.70;;;;;;5032133;28;19913;-81
2022/08/03 08:04:41;;;;;;;;;;;25.80;59.20;;;;;;5013569;28;19916;-81
2022/08/03 08:07:07;;;;;;;;;;;25.70;58.50;;;;;;5023337;28;19963;-81
2022/08/03 08:09:33;;;;;;;;;;;25.80;58.00;;;;;;5031343;28;19925;-81
2022/08/03 08:11:58;;;;;;;;;;;25.80;58.40;;;;;;5032685;28;19971;-81
2022/08/03 08:14:24;;;;;;;;;;;25.80;57.50;;;;;;5032727;28;19910;-81
2022/08/03 08:16:49;;;;;;;;;;;25.80;57.60;;;;;;5029860;28;19914;-81
2022/08/03 08:19:15;;;;;;;;;;;25.90;58.20;;;;;;5032955;28;20007;-81
2022/08/03 08:21:41;;;;;;;;;;;26.10;57.80;;;;;;5033300;28;20043;-81
2022/08/03 08:24:06;;;;;;;;;;;26.00;57.20;;;;;;5032226;28;20039;-81
2022/08/03 08:26:32;;;;;;;;;;;26.10;56.80;;;;;;5029644;28;19928;-81
2022/08/03 08:28:57;;;;;;;;;;;26.20;55.90;;;;;;5018594;28;20394;-81
2022/08/03 08:31:23;;;;;;;;;;;26.20;56.40;;;;;;5032790;28;19913;-81
2022/08/03 08:33:48;;;;;;;;;;;26.20;55.90;;;;;;5025170;28;20011;-79
2022/08/03 08:36:14;;;;;;;;;;;26.50;55.10;;;;;;5020413;28;20865;-80
2022/08/03 08:38:41;;;;;;;;;;;26.60;54.50;;;;;;5037987;28;19909;-81
2022/08/03 08:41:07;;;;;;;;;;;26.70;53.50;;;;;;5033718;28;19924;-81
2022/08/03 08:43:33;;;;;;;;;;;26.80;53.70;;;;;;5038422;28;19917;-81
2022/08/03 08:45:58;;;;;;;;;;;26.90;53.60;;;;;;5023517;28;19913;-81
2022/08/03 08:48:24;;;;;;;;;;;27.00;53.80;;;;;;5018953;28;19917;-81
2022/08/03 08:50:56;;;;;;;;;;;26.90;53.30;;;;;;5037315;28;21021;-81
2022/08/03 08:53:25;;;;;;;;;;;27.00;53.40;;;;;;5037555;28;19945;-81
2022/08/03 08:55:51;;;;;;;;;;;27.00;53.20;;;;;;5036146;28;20657;-81
2022/08/03 08:58:18;;;;;;;;;;;27.10;53.30;;;;;;5016284;28;19917;-81
2022/08/03 09:00:44;;;;;;;;;;;27.10;52.80;;;;;;5019859;28;20402;-81
2022/08/03 09:03:10;;;;;;;;;;;27.10;52.20;;;;;;5035903;28;19949;-82
2022/08/03 09:05:37;;;;;;;;;;;27.20;52.80;;;;;;5025918;28;20315;-82
2022/08/03 09:08:04;;;;;;;;;;;27.20;52.00;;;;;;5020739;28;19967;-82
2022/08/03 09:10:30;;;;;;;;;;;27.50;52.00;;;;;;5029596;28;19963;-81
2022/08/03 09:12:55;;;;;;;;;;;27.50;51.70;;;;;;5036225;28;19917;-82
2022/08/03 09:15:22;;;;;;;;;;;27.70;51.50;;;;;;5017438;28;19936;-81
2022/08/03 09:17:47;;;;;;;;;;;27.80;51.00;;;;;;5022983;28;19917;-81
2022/08/03 09:20:13;;;;;;;;;;;27.70;51.40;;;;;;5038439;28;19968;-81
2022/08/03 09:22:58;;;;;;;;;;;27.80;50.30;;;;;;5033962;28;20394;-82
2022/08/03 09:25:27;;;;;;;;;;;27.80;50.30;;;;;;5054001;28;19940;-80
2022/08/03 09:27:52;;;;;;;;;;;27.80;50.80;;;;;;5036926;28;20387;-81
2022/08/03 09:30:18;;;;;;;;;;;28.00;50.60;;;;;;5033357;28;19924;-82
2022/08/03 09:32:45;;;;;;;;;;;27.90;49.90;;;;;;5034822;28;19964;-82
2022/08/03 09:35:11;;;;;;;;;;;28.00;49.90;;;;;;5018016;28;20050;-82
2022/08/03 09:37:37;;;;;;;;;;;28.00;51.20;;;;;;5033469;28;19921;-82
2022/08/03 09:40:02;;;;;;;;;;;28.00;50.90;;;;;;5014415;28;20429;-85
2022/08/03 09:42:28;;;;;;;;;;;28.10;50.30;;;;;;5017847;28;19920;-84
2022/08/03 09:44:53;;;;;;;;;;;28.10;49.20;;;;;;5020892;28;19958;-84
2022/08/03 09:47:38;;;;;;;;;;;28.10;49.60;;;;;;5021143;28;19913;-84
2022/08/03 09:50:04;;;;;;;;;;;28.10;49.30;;;;;;5035475;28;19932;-87
2022/08/03 09:52:32;;;;;;;;;;;28.10;48.80;;;;;;5026498;28;19952;-84
2022/08/03 09:54:58;;;;;;;;;;;28.20;48.70;;;;;;5019663;28;19913;-84
2022/08/03 09:57:24;;;;;;;;;;;28.20;49.10;;;;;;5035536;28;20418;-84
2022/08/03 09:59:50;;;;;;;;;;;28.10;48.70;;;;;;5018722;28;20047;-84
2022/08/03 10:02:23;;;;;;;;;;;28.20;48.50;;;;;;5019927;28;19956;-83
2022/08/03 10:04:51;;;;;;;;;;;28.30;47.70;;;;;;5035073;28;19928;-83
2022/08/03 10:07:17;;;;;;;;;;;28.40;47.20;;;;;;5032400;28;19933;-83
2022/08/03 10:09:56;;;;;;;;;;;28.50;47.60;;;;;;5020961;28;19928;-83
2022/08/03 10:12:22;;;;;;;;;;;28.50;48.00;;;;;;5024905;28;19949;-84
2022/08/03 10:14:48;;;;;;;;;;;28.50;48.00;;;;;;5031034;28;19943;-83
2022/08/03 10:17:14;;;;;;;;;;;28.60;47.30;;;;;;5034656;28;21480;-83
2022/08/03 10:19:40;;;;;;;;;;;28.70;47.30;;;;;;5035035;28;19985;-84
2022/08/03 10:22:09;;;;;;;;;;;28.80;46.50;;;;;;5032599;28;19917;-84
2022/08/03 10:24:36;;;;;;;;;;;28.90;47.00;;;;;;5013674;28;19921;-83
2022/08/03 10:27:03;;;;;;;;;;;28.90;47.10;;;;;;5017141;28;19956;-83
2022/08/03 10:29:32;;;;;;;;;;;28.80;46.80;;;;;;5032870;28;20392;-83
2022/08/03 10:31:58;;;;;;;;;;;28.80;46.70;;;;;;5031445;28;19917;-84
2022/08/03 10:34:25;;;;;;;;;;;28.90;46.30;;;;;;5030763;28;19919;-84
2022/08/03 10:36:55;;;;;;;;;;;28.80;46.90;;;;;;5035446;28;19913;-85
2022/08/03 10:39:28;;;;;;;;;;;29.00;46.80;;;;;;5036852;28;20392;-87
2022/08/03 10:41:56;;;;;;;;;;;29.00;47.10;;;;;;5029007;28;19921;-86
2022/08/03 10:44:24;;;;;;;;;;;29.00;47.30;;;;;;5012319;28;19914;-83
2022/08/03 10:46:50;;;;;;;;;;;29.00;46.90;;;;;;5013132;28;19913;-83
2022/08/03 10:49:19;;;;;;;;;;;29.00;46.60;;;;;;5012861;28;19943;-84
2022/08/03 10:51:45;;;;;;;;;;;29.10;46.50;;;;;;5031397;28;20438;-83
2022/08/03 10:54:30;;;;;;;;;;;29.00;46.20;;;;;;5031293;28;20003;-83
2022/08/03 10:59:45;;;;;;;;;;;29.30;45.60;;;;;;5026809;28;19924;-86
2022/08/03 11:02:14;;;;;;;;;;;29.30;45.70;;;;;;5034590;28;19909;-82
2022/08/03 11:04:40;;;;;;;;;;;29.30;45.10;;;;;;5033947;28;19952;-83
2022/08/03 11:07:15;;;;;;;;;;;29.30;45.70;;;;;;5014754;28;19956;-84
2022/08/03 11:09:41;;;;;;;;;;;29.20;45.20;;;;;;5032850;28;19992;-84
2022/08/03 11:12:20;;;;;;;;;;;29.00;46.50;;;;;;5027042;28;19917;-81
2022/08/03 11:14:46;;;;;;;;;;;29.00;46.00;;;;;;5039209;28;19916;-82
2022/08/03 11:17:12;;;;;;;;;;;29.00;46.70;;;;;;5039758;28;19913;-82
2022/08/03 11:19:44;;;;;;;;;;;29.10;45.30;;;;;;5051035;28;19914;-83
2022/08/03 11:22:10;;;;;;;;;;;29.20;45.30;;;;;;5022279;28;19941;-85
2022/08/03 11:24:35;;;;;;;;;;;29.30;45.00;;;;;;5012130;28;19917;-84
2022/08/03 11:27:13;;;;;;;;;;;29.30;45.50;;;;;;5037448;28;19916;-84
2022/08/03 11:29:52;;;;;;;;;;;29.30;45.60;;;;;;5037668;28;19928;-84
2022/08/03 11:32:36;;;;;;;;;;;29.40;45.70;;;;;;5020767;28;19955;-84
2022/08/03 11:35:25;;;;;;;;;;;29.40;46.10;;;;;;5031318;28;19913;-83
2022/08/03 11:38:01;;;;;;;;;;;29.50;46.00;;;;;;5014114;28;19909;-82
2022/08/03 11:40:36;;;;;;;;;;;29.60;45.80;;;;;;5029513;28;19980;-83
2022/08/03 11:43:02;;;;;;;;;;;29.50;46.70;;;;;;5022091;28;19913;-83
2022/08/03 11:45:28;;;;;;;;;;;29.50;47.70;;;;;;5027546;28;19941;-83
2022/08/03 11:47:54;;;;;;;;;;;29.60;46.90;;;;;;5032761;28;19909;-82
2022/08/03 11:50:20;;;;;;;;;;;29.80;45.80;;;;;;5040176;28;19984;-83
2022/08/03 11:52:46;;;;;;;;;;;29.80;44.70;;;;;;5022399;28;19920;-83
2022/08/03 11:55:12;;;;;;;;;;;29.60;45.20;;;;;;5019166;28;19913;-83
2022/08/03 11:57:38;;;;;;;;;;;29.60;44.60;;;;;;5017919;28;19916;-87
2022/08/03 12:00:24;;;;;;;;;;;29.70;44.50;;;;;;5030979;28;19956;-86
2022/08/03 12:03:00;;;;;;;;;;;29.50;45.50;;;;;;5015070;28;19913;-85
2022/08/03 12:05:38;;;;;;;;;;;29.60;45.60;;;;;;5015401;28;19928;-85
2022/08/03 12:08:04;;;;;;;;;;;29.80;44.70;;;;;;5035523;28;19909;-85
2022/08/03 12:10:30;;;;;;;;;;;29.80;44.90;;;;;;5015583;28;19932;-86
2022/08/03 12:12:57;;;;;;;;;;;29.80;45.00;;;;;;5017833;28;19917;-85
2022/08/03 12:15:26;;;;;;;;;;;29.80;45.60;;;;;;5029489;28;19920;-84
2022/08/03 12:17:52;;;;;;;;;;;29.80;45.30;;;;;;5016365;28;19928;-85
2022/08/03 12:20:22;;;;;;;;;;;29.70;45.30;;;;;;5018429;28;19914;-85
2022/08/03 12:22:48;;;;;;;;;;;29.80;44.90;;;;;;5025870;28;20016;-86
2022/08/03 12:25:24;;;;;;;;;;;29.80;44.20;;;;;;5016826;28;19959;-85
2022/08/03 12:27:50;;;;;;;;;;;29.90;44.40;;;;;;5028361;28;19913;-86
2022/08/03 12:30:16;;;;;;;;;;;29.90;44.00;;;;;;5017204;28;19921;-85
2022/08/03 12:32:41;;;;;;;;;;;29.90;44.00;;;;;;5031747;28;19924;-86
2022/08/03 12:35:07;;;;;;;;;;;29.80;44.20;;;;;;5016949;28;20000;-85
2022/08/03 12:37:32;;;;;;;;;;;29.90;44.00;;;;;;5007793;28;19916;-86
2022/08/03 12:40:04;;;;;;;;;;;29.80;44.90;;;;;;5015407;28;19975;-86
2022/08/03 12:42:34;;;;;;;;;;;29.90;45.70;;;;;;5014582;28;19966;-85
2022/08/03 12:44:59;;;;;;;;;;;30.00;44.50;;;;;;5027751;28;19914;-86
2022/08/03 12:47:25;;;;;;;;;;;30.00;44.20;;;;;;5012525;28;20051;-85
2022/08/03 12:49:51;;;;;;;;;;;30.10;44.50;;;;;;5031367;28;19917;-86
2022/08/03 12:52:18;;;;;;;;;;;30.30;44.00;;;;;;5027527;28;19913;-85
2022/08/03 12:54:53;;;;;;;;;;;30.20;43.90;;;;;;5013687;28;19924;-85
2022/08/03 12:57:19;;;;;;;;;;;30.30;43.70;;;;;;5033497;28;19917;-85
2022/08/03 12:59:47;;;;;;;;;;;30.50;44.50;;;;;;5012188;28;19913;-85
2022/08/03 13:02:23;;;;;;;;;;;30.40;45.20;;;;;;5005789;28;19910;-85
2022/08/03 13:04:49;;;;;;;;;;;30.30;45.40;;;;;;5011820;28;20000;-85
2022/08/03 13:07:15;;;;;;;;;;;30.30;44.10;;;;;;5009233;28;20003;-84
2022/08/03 13:09:44;;;;;;;;;;;30.50;43.00;;;;;;5012554;28;19957;-84
2022/08/03 13:12:10;;;;;;;;;;;30.50;43.00;;;;;;5026439;28;20358;-85
2022/08/03 13:14:36;;;;;;;;;;;30.50;43.30;;;;;;5023540;28;19963;-84
2022/08/03 13:17:01;;;;;;;;;;;30.50;43.20;;;;;;5048170;28;20376;-85
2022/08/03 13:19:27;;;;;;;;;;;30.40;42.80;;;;;;5037975;28;19929;-84
2022/08/03 13:21:52;;;;;;;;;;;30.50;42.60;;;;;;5017334;28;19913;-85
2022/08/03 13:24:18;;;;;;;;;;;30.40;44.00;;;;;;5017526;28;19916;-84
2022/08/03 13:26:43;;;;;;;;;;;30.50;43.00;;;;;;5034516;28;20407;-83
2022/08/03 13:29:09;;;;;;;;;;;30.40;43.50;;;;;;5019924;28;19917;-84
2022/08/03 13:31:34;;;;;;;;;;;30.60;42.70;;;;;;5021889;28;19949;-83
2022/08/03 13:34:00;;;;;;;;;;;30.60;42.70;;;;;;5010614;28;19921;-84
2022/08/03 13:36:25;;;;;;;;;;;30.80;42.80;;;;;;5040334;28;19940;-84
2022/08/03 13:38:53;;;;;;;;;;;30.80;42.40;;;;;;5035574;28;19905;-85
2022/08/03 13:41:18;;;;;;;;;;;31.00;42.50;;;;;;5032156;28;20406;-85
2022/08/03 13:43:44;;;;;;;;;;;30.90;43.30;;;;;;5038265;28;19913;-85
2022/08/03 13:46:09;;;;;;;;;;;30.80;43.30;;;;;;5036671;28;19913;-85
2022/08/03 13:48:35;;;;;;;;;;;30.60;43.10;;;;;;5036761;28;19921;-85
2022/08/03 13:51:00;;;;;;;;;;;30.50;44.40;;;;;;5021591;28;19913;-85
2022/08/03 13:53:25;;;;;;;;;;;30.60;43.50;;;;;;5030942;28;19924;-85
2022/08/03 13:55:51;;;;;;;;;;;30.80;42.70;;;;;;5021476;28;20244;-86
2022/08/03 13:58:16;;;;;;;;;;;30.80;41.70;;;;;;5040133;28;20422;-87
2022/08/03 14:00:42;;;;;;;;;;;30.70;42.60;;;;;;5022049;28;19913;-86
2022/08/03 14:03:07;;;;;;;;;;;30.60;43.00;;;;;;5025787;28;19937;-86
2022/08/03 14:05:34;;;;;;;;;;;30.70;42.90;;;;;;5047307;28;19905;-86
2022/08/03 14:08:00;;;;;;;;;;;30.90;42.30;;;;;;5048518;28;19914;-87
2022/08/03 14:10:25;;;;;;;;;;;31.00;41.60;;;;;;5040274;28;19971;-85
2022/08/03 14:12:51;;;;;;;;;;;31.00;42.40;;;;;;5031868;28;19909;-86
2022/08/03 14:15:16;;;;;;;;;;;30.90;41.90;;;;;;5033048;28;20012;-86
2022/08/03 14:17:42;;;;;;;;;;;30.90;41.60;;;;;;5033615;28;19957;-84
2022/08/03 14:20:08;;;;;;;;;;;30.80;42.60;;;;;;5028622;28;19952;-88
2022/08/03 14:22:33;;;;;;;;;;;30.60;44.70;;;;;;5014124;28;20318;-87
2022/08/03 14:25:19;;;;;;;;;;;30.70;43.20;;;;;;5022300;28;19968;-86
2022/08/03 14:27:50;;;;;;;;;;;31.00;42.00;;;;;;5026640;28;19917;-85
2022/08/03 14:30:21;;;;;;;;;;;31.10;41.40;;;;;;5017804;28;19921;-86